Portada
METAR-TAF:

METAR-TAF

Aeropuertos :

Aeropuerto de Brindisi

Brindisi, Italia

latitud: 40-39N, longitud: 017-57E, altitud: 15 m

Observación

El informe se hizo hace 29 minutos, a las 11:20 UTC
Viento 9 kt del noreste
Temperatura 13°C
Humedad 51%
Presión 1017 hPa
Visibilidad 10 km o más
sin nubes por debajo de 1500 m y sin presencia de cumulonimbus.

METAR: LIBR 161120Z 04009KT CAVOK 13/03 Q1017

Hora: 13:49 (11:49 UTC)

Pronóstico

El informe se hizo hace 49 minutos, a las 11:00 UTC
Pronóstico válido del 16 a las 12 UTC al 17 a las 12 UTC
Viento 13 kt del norte-noreste
Visibilidad 10 km o más
sin nubes por debajo de 1500 m y sin presencia de cumulonimbus.
Temporalmente
del 17 a las 00 UTC al 17 a las 06 UTC
Viento 16 kt del norte-noreste con ráfagas de 26 kt
lluvia

TAF: LIBR 161100Z 1612/1712 03013KT CAVOK TEMPO 1700/1706 03016G26KT RA

Observaciones y pronósticos meteorológicos de más de 4000 aeropuertos (mensajes METAR y TAF).

Los puntos amarillos y rojos representan las estaciones disponibles.

Ponga el ratón en el punto deseado para ver el nombre de la estación.

Haga clic para ver las observaciones y los pronósticos meteorológicos.

Para cambiar el mapa : haga clic en los botones verdes con una cruz de color negro para hacer un zoom, en el botón verde con un guión para alejar o en las flechas verdes para mapas adyacentes.


METAR-TAF: